sensor_id;sensor_type;location;lat;lon;timestamp;P1;durP1;ratioP1;P2;durP2;ratioP2
64678;SDS011;51094;53.864;27.676;2023-03-23T00:04:54;2.70;;;2.70;;
64678;SDS011;51094;53.864;27.676;2023-03-23T00:07:21;3.13;;;3.13;;
64678;SDS011;51094;53.864;27.676;2023-03-23T00:09:53;2.83;;;2.83;;
64678;SDS011;51094;53.864;27.676;2023-03-23T00:12:23;3.05;;;3.05;;
64678;SDS011;51094;53.864;27.676;2023-03-23T00:15:00;3.50;;;3.40;;
64678;SDS011;51094;53.864;27.676;2023-03-23T00:17:27;3.33;;;3.33;;
64678;SDS011;51094;53.864;27.676;2023-03-23T00:19:53;3.20;;;3.20;;
64678;SDS011;51094;53.864;27.676;2023-03-23T00:22:19;3.20;;;3.20;;
64678;SDS011;51094;53.864;27.676;2023-03-23T00:24:46;3.15;;;3.15;;
64678;SDS011;51094;53.864;27.676;2023-03-23T00:27:16;3.42;;;3.42;;
64678;SDS011;51094;53.864;27.676;2023-03-23T00:29:42;3.50;;;3.50;;
64678;SDS011;51094;53.864;27.676;2023-03-23T00:32:11;3.40;;;3.40;;
64678;SDS011;51094;53.864;27.676;2023-03-23T00:34:40;3.35;;;3.35;;
64678;SDS011;51094;53.864;27.676;2023-03-23T00:37:08;3.30;;;3.30;;
64678;SDS011;51094;53.864;27.676;2023-03-23T00:39:34;3.40;;;3.40;;
64678;SDS011;51094;53.864;27.676;2023-03-23T00:42:04;3.40;;;3.40;;
64678;SDS011;51094;53.864;27.676;2023-03-23T00:44:32;3.60;;;3.60;;
64678;SDS011;51094;53.864;27.676;2023-03-23T00:47:00;3.75;;;3.75;;
64678;SDS011;51094;53.864;27.676;2023-03-23T00:49:27;3.60;;;3.58;;
64678;SDS011;51094;53.864;27.676;2023-03-23T00:51:54;3.70;;;3.70;;
64678;SDS011;51094;53.864;27.676;2023-03-23T00:54:22;3.33;;;3.33;;
64678;SDS011;51094;53.864;27.676;2023-03-23T00:56:49;3.72;;;3.72;;
64678;SDS011;51094;53.864;27.676;2023-03-23T00:59:15;4.00;;;4.00;;
64678;SDS011;51094;53.864;27.676;2023-03-23T01:01:40;4.00;;;4.00;;
64678;SDS011;51094;53.864;27.676;2023-03-23T01:04:06;3.90;;;3.90;;
64678;SDS011;51094;53.864;27.676;2023-03-23T01:06:33;4.00;;;3.92;;
64678;SDS011;51094;53.864;27.676;2023-03-23T01:09:04;3.78;;;3.78;;
64678;SDS011;51094;53.864;27.676;2023-03-23T01:11:34;3.60;;;3.60;;
64678;SDS011;51094;53.864;27.676;2023-03-23T01:14:01;3.78;;;3.78;;
64678;SDS011;51094;53.864;27.676;2023-03-23T01:16:27;3.75;;;3.70;;
64678;SDS011;51094;53.864;27.676;2023-03-23T01:18:53;3.95;;;3.90;;
64678;SDS011;51094;53.864;27.676;2023-03-23T01:21:19;3.90;;;3.80;;
64678;SDS011;51094;53.864;27.676;2023-03-23T01:23:46;4.10;;;4.00;;
64678;SDS011;51094;53.864;27.676;2023-03-23T01:26:13;4.05;;;3.95;;
64678;SDS011;51094;53.864;27.676;2023-03-23T01:28:41;3.78;;;3.78;;
64678;SDS011;51094;53.864;27.676;2023-03-23T01:31:15;3.95;;;3.95;;
64678;SDS011;51094;53.864;27.676;2023-03-23T01:33:43;3.90;;;3.90;;
64678;SDS011;51094;53.864;27.676;2023-03-23T01:36:10;3.85;;;3.78;;
64678;SDS011;51094;53.864;27.676;2023-03-23T01:38:38;4.10;;;4.10;;
64678;SDS011;51094;53.864;27.676;2023-03-23T01:41:04;3.90;;;3.90;;
64678;SDS011;51094;53.864;27.676;2023-03-23T01:43:30;4.10;;;4.10;;
64678;SDS011;51094;53.864;27.676;2023-03-23T01:45:57;4.10;;;4.10;;
64678;SDS011;51094;53.864;27.676;2023-03-23T01:48:24;3.78;;;3.78;;
64678;SDS011;51094;53.864;27.676;2023-03-23T01:51:06;4.32;;;4.22;;
64678;SDS011;51094;53.864;27.676;2023-03-23T01:53:40;3.83;;;3.83;;
64678;SDS011;51094;53.864;27.676;2023-03-23T01:56:11;4.05;;;4.05;;
64678;SDS011;51094;53.864;27.676;2023-03-23T01:58:39;3.70;;;3.70;;
64678;SDS011;51094;53.864;27.676;2023-03-23T02:01:08;3.72;;;3.72;;
64678;SDS011;51094;53.864;27.676;2023-03-23T02:03:37;4.03;;;4.03;;
64678;SDS011;51094;53.864;27.676;2023-03-23T02:06:07;4.35;;;4.25;;
64678;SDS011;51094;53.864;27.676;2023-03-23T02:08:42;4.00;;;3.90;;
64678;SDS011;51094;53.864;27.676;2023-03-23T02:11:17;4.10;;;4.10;;
64678;SDS011;51094;53.864;27.676;2023-03-23T02:13:44;4.13;;;4.13;;
64678;SDS011;51094;53.864;27.676;2023-03-23T02:16:16;3.90;;;3.90;;
64678;SDS011;51094;53.864;27.676;2023-03-23T02:19:00;3.83;;;3.80;;
64678;SDS011;51094;53.864;27.676;2023-03-23T02:41:28;4.20;;;4.20;;
64678;SDS011;51094;53.864;27.676;2023-03-23T02:43:58;4.30;;;4.20;;
64678;SDS011;51094;53.864;27.676;2023-03-23T02:46:28;4.72;;;4.63;;
64678;SDS011;51094;53.864;27.676;2023-03-23T02:48:55;4.70;;;4.60;;
64678;SDS011;51094;53.864;27.676;2023-03-23T02:51:24;4.80;;;4.70;;
64678;SDS011;51094;53.864;27.676;2023-03-23T02:53:51;4.53;;;4.43;;
64678;SDS011;51094;53.864;27.676;2023-03-23T02:56:20;5.03;;;4.93;;
64678;SDS011;51094;53.864;27.676;2023-03-23T02:58:50;4.80;;;4.70;;
64678;SDS011;51094;53.864;27.676;2023-03-23T03:04:07;5.05;;;4.95;;
64678;SDS011;51094;53.864;27.676;2023-03-23T03:06:47;5.10;;;5.00;;
64678;SDS011;51094;53.864;27.676;2023-03-23T03:18:06;5.35;;;5.25;;
64678;SDS011;51094;53.864;27.676;2023-03-23T03:20:35;5.68;;;5.57;;
64678;SDS011;51094;53.864;27.676;2023-03-23T03:23:06;5.53;;;5.43;;
64678;SDS011;51094;53.864;27.676;2023-03-23T03:25:40;5.40;;;5.30;;
64678;SDS011;51094;53.864;27.676;2023-03-23T03:28:08;5.53;;;5.43;;
64678;SDS011;51094;53.864;27.676;2023-03-23T03:30:42;5.70;;;5.60;;
64678;SDS011;51094;53.864;27.676;2023-03-23T03:33:10;5.65;;;5.55;;
64678;SDS011;51094;53.864;27.676;2023-03-23T03:35:38;5.63;;;5.53;;
64678;SDS011;51094;53.864;27.676;2023-03-23T03:38:09;5.53;;;5.43;;
64678;SDS011;51094;53.864;27.676;2023-03-23T03:40:36;5.43;;;5.32;;
64678;SDS011;51094;53.864;27.676;2023-03-23T03:43:02;5.88;;;5.78;;
64678;SDS011;51094;53.864;27.676;2023-03-23T03:45:28;5.30;;;5.20;;
64678;SDS011;51094;53.864;27.676;2023-03-23T03:47:54;5.25;;;5.15;;
64678;SDS011;51094;53.864;27.676;2023-03-23T03:50:21;5.78;;;5.68;;
64678;SDS011;51094;53.864;27.676;2023-03-23T03:52:46;5.88;;;5.78;;
64678;SDS011;51094;53.864;27.676;2023-03-23T03:55:13;5.85;;;5.75;;
64678;SDS011;51094;53.864;27.676;2023-03-23T03:57:42;6.40;;;6.30;;
64678;SDS011;51094;53.864;27.676;2023-03-23T04:00:25;6.45;;;6.35;;
64678;SDS011;51094;53.864;27.676;2023-03-23T04:02:51;6.60;;;6.50;;
64678;SDS011;51094;53.864;27.676;2023-03-23T04:05:40;6.72;;;6.63;;
64678;SDS011;51094;53.864;27.676;2023-03-23T04:08:07;5.80;;;5.70;;
64678;SDS011;51094;53.864;27.676;2023-03-23T04:10:33;6.88;;;6.78;;
64678;SDS011;51094;53.864;27.676;2023-03-23T04:13:00;7.20;;;7.10;;
64678;SDS011;51094;53.864;27.676;2023-03-23T04:15:52;6.82;;;6.72;;
64678;SDS011;51094;53.864;27.676;2023-03-23T04:18:18;8.07;;;7.88;;
64678;SDS011;51094;53.864;27.676;2023-03-23T04:20:46;8.40;;;8.20;;
64678;SDS011;51094;53.864;27.676;2023-03-23T04:23:17;7.63;;;7.53;;
64678;SDS011;51094;53.864;27.676;2023-03-23T04:25:49;7.78;;;7.57;;
64678;SDS011;51094;53.864;27.676;2023-03-23T04:28:17;7.82;;;7.63;;
64678;SDS011;51094;53.864;27.676;2023-03-23T04:31:04;7.40;;;7.30;;
64678;SDS011;51094;53.864;27.676;2023-03-23T04:33:30;7.55;;;7.35;;
64678;SDS011;51094;53.864;27.676;2023-03-23T04:35:59;7.65;;;7.47;;
64678;SDS011;51094;53.864;27.676;2023-03-23T04:38:36;7.78;;;7.57;;
64678;SDS011;51094;53.864;27.676;2023-03-23T04:41:10;7.40;;;7.20;;
64678;SDS011;51094;53.864;27.676;2023-03-23T04:43:57;7.55;;;7.35;;
64678;SDS011;51094;53.864;27.676;2023-03-23T04:46:37;7.75;;;7.55;;
64678;SDS011;51094;53.864;27.676;2023-03-23T04:49:10;8.07;;;7.88;;
64678;SDS011;51094;53.864;27.676;2023-03-23T04:51:38;7.50;;;7.30;;
64678;SDS011;51094;53.864;27.676;2023-03-23T04:54:34;7.55;;;7.35;;
64678;SDS011;51094;53.864;27.676;2023-03-23T04:57:00;7.40;;;7.20;;
64678;SDS011;51094;53.864;27.676;2023-03-23T04:59:27;7.30;;;7.10;;
64678;SDS011;51094;53.864;27.676;2023-03-23T05:02:02;7.60;;;7.40;;
64678;SDS011;51094;53.864;27.676;2023-03-23T05:04:28;7.82;;;7.65;;
64678;SDS011;51094;53.864;27.676;2023-03-23T05:07:13;7.25;;;7.05;;
64678;SDS011;51094;53.864;27.676;2023-03-23T05:09:48;7.03;;;6.82;;
64678;SDS011;51094;53.864;27.676;2023-03-23T05:12:17;7.50;;;7.35;;
64678;SDS011;51094;53.864;27.676;2023-03-23T05:15:03;6.80;;;6.70;;
64678;SDS011;51094;53.864;27.676;2023-03-23T05:17:31;6.55;;;6.45;;
64678;SDS011;51094;53.864;27.676;2023-03-23T05:20:00;6.45;;;6.35;;
64678;SDS011;51094;53.864;27.676;2023-03-23T05:22:36;6.25;;;6.15;;
64678;SDS011;51094;53.864;27.676;2023-03-23T05:25:04;6.30;;;6.20;;
64678;SDS011;51094;53.864;27.676;2023-03-23T05:27:36;6.53;;;6.43;;
64678;SDS011;51094;53.864;27.676;2023-03-23T05:30:14;6.68;;;6.57;;
64678;SDS011;51094;53.864;27.676;2023-03-23T05:32:43;6.73;;;6.63;;
64678;SDS011;51094;53.864;27.676;2023-03-23T05:35:39;7.28;;;7.18;;
64678;SDS011;51094;53.864;27.676;2023-03-23T05:38:04;9.38;;;9.18;;
64678;SDS011;51094;53.864;27.676;2023-03-23T05:40:30;9.38;;;9.18;;
64678;SDS011;51094;53.864;27.676;2023-03-23T05:43:07;10.30;;;10.10;;
64678;SDS011;51094;53.864;27.676;2023-03-23T05:45:51;11.63;;;11.32;;
64678;SDS011;51094;53.864;27.676;2023-03-23T05:48:17;9.93;;;9.73;;
64678;SDS011;51094;53.864;27.676;2023-03-23T05:50:43;10.45;;;10.25;;
64678;SDS011;51094;53.864;27.676;2023-03-23T05:53:10;9.85;;;9.60;;
64678;SDS011;51094;53.864;27.676;2023-03-23T05:55:38;8.45;;;8.25;;
64678;SDS011;51094;53.864;27.676;2023-03-23T05:58:35;8.88;;;8.68;;
64678;SDS011;51094;53.864;27.676;2023-03-23T06:01:06;8.52;;;8.32;;
64678;SDS011;51094;53.864;27.676;2023-03-23T06:03:32;6.90;;;6.80;;
64678;SDS011;51094;53.864;27.676;2023-03-23T06:06:17;7.15;;;7.05;;
64678;SDS011;51094;53.864;27.676;2023-03-23T06:08:50;6.18;;;6.07;;
64678;SDS011;51094;53.864;27.676;2023-03-23T06:11:21;6.15;;;6.05;;
64678;SDS011;51094;53.864;27.676;2023-03-23T06:14:04;6.25;;;6.15;;
64678;SDS011;51094;53.864;27.676;2023-03-23T06:16:30;6.32;;;6.22;;
64678;SDS011;51094;53.864;27.676;2023-03-23T06:18:57;5.88;;;5.78;;
64678;SDS011;51094;53.864;27.676;2023-03-23T06:21:31;6.57;;;6.47;;
64678;SDS011;51094;53.864;27.676;2023-03-23T06:24:09;5.88;;;5.78;;
64678;SDS011;51094;53.864;27.676;2023-03-23T06:26:37;6.13;;;6.03;;
64678;SDS011;51094;53.864;27.676;2023-03-23T06:29:13;5.57;;;5.47;;
64678;SDS011;51094;53.864;27.676;2023-03-23T06:31:44;6.10;;;6.00;;
64678;SDS011;51094;53.864;27.676;2023-03-23T06:34:13;5.95;;;5.85;;
64678;SDS011;51094;53.864;27.676;2023-03-23T06:36:58;6.03;;;5.93;;
64678;SDS011;51094;53.864;27.676;2023-03-23T06:39:35;6.20;;;6.10;;
64678;SDS011;51094;53.864;27.676;2023-03-23T06:42:25;6.10;;;6.00;;
64678;SDS011;51094;53.864;27.676;2023-03-23T06:45:09;5.90;;;5.80;;
64678;SDS011;51094;53.864;27.676;2023-03-23T06:47:36;6.50;;;6.40;;
64678;SDS011;51094;53.864;27.676;2023-03-23T06:50:02;6.15;;;6.05;;
64678;SDS011;51094;53.864;27.676;2023-03-23T06:52:30;6.45;;;6.35;;
64678;SDS011;51094;53.864;27.676;2023-03-23T06:54:55;6.05;;;5.95;;
64678;SDS011;51094;53.864;27.676;2023-03-23T06:57:21;6.57;;;6.47;;
64678;SDS011;51094;53.864;27.676;2023-03-23T06:59:49;6.03;;;5.93;;
64678;SDS011;51094;53.864;27.676;2023-03-23T07:02:16;6.07;;;5.97;;
64678;SDS011;51094;53.864;27.676;2023-03-23T07:04:44;6.20;;;6.10;;
64678;SDS011;51094;53.864;27.676;2023-03-23T07:07:24;5.95;;;5.85;;
64678;SDS011;51094;53.864;27.676;2023-03-23T07:10:03;6.07;;;5.97;;
64678;SDS011;51094;53.864;27.676;2023-03-23T07:12:31;6.25;;;6.15;;
64678;SDS011;51094;53.864;27.676;2023-03-23T07:14:56;6.10;;;6.00;;
64678;SDS011;51094;53.864;27.676;2023-03-23T07:17:22;5.97;;;5.88;;
64678;SDS011;51094;53.864;27.676;2023-03-23T07:20:07;6.43;;;6.32;;
64678;SDS011;51094;53.864;27.676;2023-03-23T07:22:33;6.10;;;6.00;;
64678;SDS011;51094;53.864;27.676;2023-03-23T07:25:08;6.18;;;6.07;;
64678;SDS011;51094;53.864;27.676;2023-03-23T07:27:46;6.28;;;6.18;;
64678;SDS011;51094;53.864;27.676;2023-03-23T07:30:14;6.45;;;6.28;;
64678;SDS011;51094;53.864;27.676;2023-03-23T07:32:40;6.30;;;6.20;;
64678;SDS011;51094;53.864;27.676;2023-03-23T07:35:07;6.03;;;5.93;;
64678;SDS011;51094;53.864;27.676;2023-03-23T07:38:00;6.00;;;5.90;;
64678;SDS011;51094;53.864;27.676;2023-03-23T07:40:27;6.43;;;6.32;;
64678;SDS011;51094;53.864;27.676;2023-03-23T07:42:59;6.57;;;6.47;;
64678;SDS011;51094;53.864;27.676;2023-03-23T07:45:35;7.43;;;7.22;;
64678;SDS011;51094;53.864;27.676;2023-03-23T07:48:01;7.10;;;6.90;;
64678;SDS011;51094;53.864;27.676;2023-03-23T07:50:28;7.38;;;7.18;;
64678;SDS011;51094;53.864;27.676;2023-03-23T07:52:55;6.93;;;6.72;;
64678;SDS011;51094;53.864;27.676;2023-03-23T07:55:24;6.35;;;6.25;;
64678;SDS011;51094;53.864;27.676;2023-03-23T07:58:21;7.03;;;6.93;;
64678;SDS011;51094;53.864;27.676;2023-03-23T08:00:52;7.07;;;6.88;;
64678;SDS011;51094;53.864;27.676;2023-03-23T08:03:21;7.10;;;6.90;;
64678;SDS011;51094;53.864;27.676;2023-03-23T08:05:58;6.50;;;6.40;;
64678;SDS011;51094;53.864;27.676;2023-03-23T08:08:43;6.43;;;6.32;;
64678;SDS011;51094;53.864;27.676;2023-03-23T08:11:29;6.68;;;6.57;;
64678;SDS011;51094;53.864;27.676;2023-03-23T08:14:13;6.57;;;6.47;;
64678;SDS011;51094;53.864;27.676;2023-03-23T08:16:58;6.72;;;6.63;;
64678;SDS011;51094;53.864;27.676;2023-03-23T08:19:43;6.28;;;6.18;;
64678;SDS011;51094;53.864;27.676;2023-03-23T08:22:43;6.13;;;6.03;;
64678;SDS011;51094;53.864;27.676;2023-03-23T08:25:48;5.85;;;5.75;;
64678;SDS011;51094;53.864;27.676;2023-03-23T08:28:35;5.72;;;5.63;;
64678;SDS011;51094;53.864;27.676;2023-03-23T08:31:20;5.53;;;5.43;;
64678;SDS011;51094;53.864;27.676;2023-03-23T08:34:18;4.95;;;4.85;;
64678;SDS011;51094;53.864;27.676;2023-03-23T08:37:04;5.45;;;5.35;;
64678;SDS011;51094;53.864;27.676;2023-03-23T08:39:53;5.47;;;5.38;;
64678;SDS011;51094;53.864;27.676;2023-03-23T08:42:39;5.60;;;5.50;;
64678;SDS011;51094;53.864;27.676;2023-03-23T08:45:17;5.50;;;5.40;;
64678;SDS011;51094;53.864;27.676;2023-03-23T08:47:44;5.57;;;5.47;;
64678;SDS011;51094;53.864;27.676;2023-03-23T08:50:23;5.47;;;5.38;;
64678;SDS011;51094;53.864;27.676;2023-03-23T08:53:23;5.80;;;5.70;;
64678;SDS011;51094;53.864;27.676;2023-03-23T08:56:08;5.82;;;5.72;;
64678;SDS011;51094;53.864;27.676;2023-03-23T08:58:56;5.82;;;5.72;;
64678;SDS011;51094;53.864;27.676;2023-03-23T09:01:38;5.60;;;5.50;;
64678;SDS011;51094;53.864;27.676;2023-03-23T09:04:25;5.70;;;5.60;;
64678;SDS011;51094;53.864;27.676;2023-03-23T09:07:16;5.85;;;5.75;;
64678;SDS011;51094;53.864;27.676;2023-03-23T09:09:42;5.22;;;5.13;;
64678;SDS011;51094;53.864;27.676;2023-03-23T09:12:08;5.88;;;5.78;;
64678;SDS011;51094;53.864;27.676;2023-03-23T09:14:37;5.13;;;5.03;;
64678;SDS011;51094;53.864;27.676;2023-03-23T09:17:04;5.55;;;5.45;;
64678;SDS011;51094;53.864;27.676;2023-03-23T09:19:31;5.80;;;5.70;;
64678;SDS011;51094;53.864;27.676;2023-03-23T09:21:58;5.50;;;5.40;;
64678;SDS011;51094;53.864;27.676;2023-03-23T09:24:25;6.07;;;5.97;;
64678;SDS011;51094;53.864;27.676;2023-03-23T09:26:51;6.10;;;6.00;;
64678;SDS011;51094;53.864;27.676;2023-03-23T09:29:17;6.35;;;6.25;;
64678;SDS011;51094;53.864;27.676;2023-03-23T09:31:44;6.53;;;6.43;;
64678;SDS011;51094;53.864;27.676;2023-03-23T09:34:12;5.90;;;5.80;;
64678;SDS011;51094;53.864;27.676;2023-03-23T09:36:41;6.00;;;5.90;;
64678;SDS011;51094;53.864;27.676;2023-03-23T09:39:08;5.68;;;5.57;;
64678;SDS011;51094;53.864;27.676;2023-03-23T09:48:14;5.60;;;5.50;;
64678;SDS011;51094;53.864;27.676;2023-03-23T09:50:24;5.30;;;5.20;;
64678;SDS011;51094;53.864;27.676;2023-03-23T09:53:02;5.30;;;5.20;;
64678;SDS011;51094;53.864;27.676;2023-03-23T09:55:34;5.40;;;5.30;;
64678;SDS011;51094;53.864;27.676;2023-03-23T10:03:39;5.15;;;5.05;;
64678;SDS011;51094;53.864;27.676;2023-03-23T10:06:12;5.40;;;5.30;;
64678;SDS011;51094;53.864;27.676;2023-03-23T10:08:50;5.32;;;5.22;;
64678;SDS011;51094;53.864;27.676;2023-03-23T10:14:07;5.28;;;5.18;;
64678;SDS011;51094;53.864;27.676;2023-03-23T10:17:19;5.32;;;5.22;;
64678;SDS011;51094;53.864;27.676;2023-03-23T10:22:42;5.03;;;4.93;;
64678;SDS011;51094;53.864;27.676;2023-03-23T10:25:28;4.88;;;4.78;;
64678;SDS011;51094;53.864;27.676;2023-03-23T10:28:09;5.00;;;4.90;;
64678;SDS011;51094;53.864;27.676;2023-03-23T10:30:45;5.15;;;5.05;;
64678;SDS011;51094;53.864;27.676;2023-03-23T10:33:19;5.30;;;5.20;;
64678;SDS011;51094;53.864;27.676;2023-03-23T10:35:50;5.45;;;5.35;;
64678;SDS011;51094;53.864;27.676;2023-03-23T10:38:24;4.80;;;4.70;;
64678;SDS011;51094;53.864;27.676;2023-03-23T10:40:56;5.07;;;4.97;;
64678;SDS011;51094;53.864;27.676;2023-03-23T10:43:34;5.10;;;5.00;;
64678;SDS011;51094;53.864;27.676;2023-03-23T10:46:02;4.97;;;4.88;;
64678;SDS011;51094;53.864;27.676;2023-03-23T10:48:37;4.85;;;4.75;;
64678;SDS011;51094;53.864;27.676;2023-03-23T10:51:04;5.07;;;4.97;;
64678;SDS011;51094;53.864;27.676;2023-03-23T10:53:38;4.85;;;4.75;;
64678;SDS011;51094;53.864;27.676;2023-03-23T10:56:25;4.97;;;4.88;;
64678;SDS011;51094;53.864;27.676;2023-03-23T10:58:53;5.22;;;5.13;;
64678;SDS011;51094;53.864;27.676;2023-03-23T11:01:27;4.82;;;4.72;;
64678;SDS011;51094;53.864;27.676;2023-03-23T11:03:56;4.85;;;4.75;;
64678;SDS011;51094;53.864;27.676;2023-03-23T11:06:22;4.82;;;4.72;;
64678;SDS011;51094;53.864;27.676;2023-03-23T11:09:11;5.00;;;4.90;;
64678;SDS011;51094;53.864;27.676;2023-03-23T11:11:40;5.07;;;4.97;;
64678;SDS011;51094;53.864;27.676;2023-03-23T11:14:27;4.90;;;4.80;;
64678;SDS011;51094;53.864;27.676;2023-03-23T11:16:56;4.70;;;4.60;;
64678;SDS011;51094;53.864;27.676;2023-03-23T11:19:26;4.70;;;4.60;;
64678;SDS011;51094;53.864;27.676;2023-03-23T11:21:55;4.75;;;4.65;;
64678;SDS011;51094;53.864;27.676;2023-03-23T11:24:31;4.70;;;4.60;;
64678;SDS011;51094;53.864;27.676;2023-03-23T11:27:06;5.07;;;4.97;;
64678;SDS011;51094;53.864;27.676;2023-03-23T11:29:34;4.80;;;4.70;;
64678;SDS011;51094;53.864;27.676;2023-03-23T11:32:04;4.68;;;4.57;;
64678;SDS011;51094;53.864;27.676;2023-03-23T11:34:40;4.68;;;4.57;;
64678;SDS011;51094;53.864;27.676;2023-03-23T11:39:53;4.53;;;4.53;;
64678;SDS011;51094;53.864;27.676;2023-03-23T11:42:24;5.22;;;5.13;;
64678;SDS011;51094;53.864;27.676;2023-03-23T11:45:20;4.88;;;4.78;;
64678;SDS011;51094;53.864;27.676;2023-03-23T11:50:37;4.70;;;4.60;;
64678;SDS011;51094;53.864;27.676;2023-03-23T11:56:11;4.80;;;4.70;;
64678;SDS011;51094;53.864;27.676;2023-03-23T11:58:43;4.78;;;4.75;;
64678;SDS011;51094;53.864;27.676;2023-03-23T12:09:40;4.60;;;4.50;;
64678;SDS011;51094;53.864;27.676;2023-03-23T12:12:23;4.80;;;4.70;;
64678;SDS011;51094;53.864;27.676;2023-03-23T12:17:58;4.55;;;4.45;;
64678;SDS011;51094;53.864;27.676;2023-03-23T12:20:46;4.68;;;4.57;;
64678;SDS011;51094;53.864;27.676;2023-03-23T12:31:33;4.57;;;4.50;;
64678;SDS011;51094;53.864;27.676;2023-03-23T12:44:27;4.95;;;4.85;;
64678;SDS011;51094;53.864;27.676;2023-03-23T12:47:21;5.10;;;5.00;;
64678;SDS011;51094;53.864;27.676;2023-03-23T12:49:57;4.75;;;4.65;;
64678;SDS011;51094;53.864;27.676;2023-03-23T12:52:30;4.95;;;4.85;;
64678;SDS011;51094;53.864;27.676;2023-03-23T12:57:51;5.00;;;4.90;;
64678;SDS011;51094;53.864;27.676;2023-03-23T13:00:29;4.80;;;4.70;;
64678;SDS011;51094;53.864;27.676;2023-03-23T13:03:12;4.90;;;4.80;;
64678;SDS011;51094;53.864;27.676;2023-03-23T13:11:39;4.80;;;4.70;;
64678;SDS011;51094;53.864;27.676;2023-03-23T13:22:20;5.25;;;5.15;;
64678;SDS011;51094;53.864;27.676;2023-03-23T13:24:56;5.05;;;4.95;;
64678;SDS011;51094;53.864;27.676;2023-03-23T13:27:26;4.80;;;4.70;;
64678;SDS011;51094;53.864;27.676;2023-03-23T13:29:53;4.85;;;4.75;;
64678;SDS011;51094;53.864;27.676;2023-03-23T13:32:21;4.90;;;4.80;;
64678;SDS011;51094;53.864;27.676;2023-03-23T13:34:53;5.10;;;5.00;;
64678;SDS011;51094;53.864;27.676;2023-03-23T13:37:24;4.78;;;4.68;;
64678;SDS011;51094;53.864;27.676;2023-03-23T13:39:55;5.10;;;5.00;;
64678;SDS011;51094;53.864;27.676;2023-03-23T13:42:28;4.88;;;4.78;;
64678;SDS011;51094;53.864;27.676;2023-03-23T13:45:08;4.82;;;4.72;;
64678;SDS011;51094;53.864;27.676;2023-03-23T13:47:49;5.03;;;4.93;;
64678;SDS011;51094;53.864;27.676;2023-03-23T13:50:54;4.95;;;4.85;;
64678;SDS011;51094;53.864;27.676;2023-03-23T13:53:26;5.13;;;5.03;;
64678;SDS011;51094;53.864;27.676;2023-03-23T13:58:51;5.32;;;5.22;;
64678;SDS011;51094;53.864;27.676;2023-03-23T14:01:36;4.65;;;4.55;;
64678;SDS011;51094;53.864;27.676;2023-03-23T14:04:09;4.63;;;4.53;;
64678;SDS011;51094;53.864;27.676;2023-03-23T14:06:40;5.03;;;4.93;;
64678;SDS011;51094;53.864;27.676;2023-03-23T14:09:36;5.03;;;4.93;;
64678;SDS011;51094;53.864;27.676;2023-03-23T14:12:05;4.65;;;4.55;;
64678;SDS011;51094;53.864;27.676;2023-03-23T14:14:41;4.75;;;4.65;;
64678;SDS011;51094;53.864;27.676;2023-03-23T14:17:21;4.30;;;4.20;;
64678;SDS011;51094;53.864;27.676;2023-03-23T14:19:51;4.18;;;4.18;;
64678;SDS011;51094;53.864;27.676;2023-03-23T14:22:27;4.40;;;4.30;;
64678;SDS011;51094;53.864;27.676;2023-03-23T14:25:02;4.20;;;4.10;;
64678;SDS011;51094;53.864;27.676;2023-03-23T14:27:35;4.30;;;4.20;;
64678;SDS011;51094;53.864;27.676;2023-03-23T14:30:03;4.30;;;4.20;;
64678;SDS011;51094;53.864;27.676;2023-03-23T14:32:31;3.80;;;3.80;;
64678;SDS011;51094;53.864;27.676;2023-03-23T14:34:58;4.10;;;4.00;;
64678;SDS011;51094;53.864;27.676;2023-03-23T14:37:30;3.83;;;3.80;;
64678;SDS011;51094;53.864;27.676;2023-03-23T14:39:57;4.10;;;4.00;;
64678;SDS011;51094;53.864;27.676;2023-03-23T14:42:29;3.95;;;3.85;;
64678;SDS011;51094;53.864;27.676;2023-03-23T14:44:56;3.70;;;3.70;;
64678;SDS011;51094;53.864;27.676;2023-03-23T14:47:29;3.85;;;3.85;;
64678;SDS011;51094;53.864;27.676;2023-03-23T14:50:00;4.03;;;3.97;;
64678;SDS011;51094;53.864;27.676;2023-03-23T14:52:32;3.70;;;3.70;;
64678;SDS011;51094;53.864;27.676;2023-03-23T14:55:21;3.90;;;3.90;;
64678;SDS011;51094;53.864;27.676;2023-03-23T14:57:47;3.78;;;3.70;;
64678;SDS011;51094;53.864;27.676;2023-03-23T15:00:20;3.72;;;3.65;;
64678;SDS011;51094;53.864;27.676;2023-03-23T15:02:49;3.80;;;3.70;;
64678;SDS011;51094;53.864;27.676;2023-03-23T15:05:25;3.40;;;3.40;;
64678;SDS011;51094;53.864;27.676;2023-03-23T15:07:55;3.35;;;3.25;;
64678;SDS011;51094;53.864;27.676;2023-03-23T15:10:26;3.50;;;3.50;;
64678;SDS011;51094;53.864;27.676;2023-03-23T15:12:53;3.63;;;3.63;;
64678;SDS011;51094;53.864;27.676;2023-03-23T15:15:30;3.85;;;3.85;;
64678;SDS011;51094;53.864;27.676;2023-03-23T15:17:58;3.80;;;3.80;;
64678;SDS011;51094;53.864;27.676;2023-03-23T15:23:16;3.53;;;3.53;;
64678;SDS011;51094;53.864;27.676;2023-03-23T15:25:47;3.95;;;3.85;;
64678;SDS011;51094;53.864;27.676;2023-03-23T15:28:17;3.58;;;3.58;;
64678;SDS011;51094;53.864;27.676;2023-03-23T15:33:17;4.10;;;4.00;;
64678;SDS011;51094;53.864;27.676;2023-03-23T15:35:47;3.60;;;3.55;;
64678;SDS011;51094;53.864;27.676;2023-03-23T15:38:17;3.75;;;3.65;;
64678;SDS011;51094;53.864;27.676;2023-03-23T15:40:54;3.80;;;3.70;;
64678;SDS011;51094;53.864;27.676;2023-03-23T15:43:25;3.58;;;3.58;;
64678;SDS011;51094;53.864;27.676;2023-03-23T15:45:56;3.55;;;3.55;;
64678;SDS011;51094;53.864;27.676;2023-03-23T15:48:26;3.70;;;3.60;;
64678;SDS011;51094;53.864;27.676;2023-03-23T15:50:53;3.70;;;3.70;;
64678;SDS011;51094;53.864;27.676;2023-03-23T15:53:22;3.50;;;3.50;;
64678;SDS011;51094;53.864;27.676;2023-03-23T15:55:54;3.80;;;3.80;;
64678;SDS011;51094;53.864;27.676;2023-03-23T15:58:20;3.70;;;3.60;;
64678;SDS011;51094;53.864;27.676;2023-03-23T16:00:47;3.40;;;3.40;;
64678;SDS011;51094;53.864;27.676;2023-03-23T16:03:18;3.40;;;3.30;;
64678;SDS011;51094;53.864;27.676;2023-03-23T16:05:50;3.35;;;3.35;;
64678;SDS011;51094;53.864;27.676;2023-03-23T16:08:17;3.65;;;3.55;;
64678;SDS011;51094;53.864;27.676;2023-03-23T16:10:44;3.90;;;3.80;;
64678;SDS011;51094;53.864;27.676;2023-03-23T16:13:11;3.70;;;3.70;;
64678;SDS011;51094;53.864;27.676;2023-03-23T16:15:38;3.80;;;3.70;;
64678;SDS011;51094;53.864;27.676;2023-03-23T16:18:05;3.58;;;3.47;;
64678;SDS011;51094;53.864;27.676;2023-03-23T16:20:32;3.88;;;3.78;;
64678;SDS011;51094;53.864;27.676;2023-03-23T16:22:59;3.92;;;3.83;;
64678;SDS011;51094;53.864;27.676;2023-03-23T16:25:26;3.85;;;3.75;;
64678;SDS011;51094;53.864;27.676;2023-03-23T16:27:53;3.70;;;3.70;;
64678;SDS011;51094;53.864;27.676;2023-03-23T16:30:21;4.07;;;3.97;;
64678;SDS011;51094;53.864;27.676;2023-03-23T16:32:48;3.95;;;3.85;;
64678;SDS011;51094;53.864;27.676;2023-03-23T16:35:17;3.78;;;3.78;;
64678;SDS011;51094;53.864;27.676;2023-03-23T16:37:45;3.72;;;3.63;;
64678;SDS011;51094;53.864;27.676;2023-03-23T16:40:34;3.47;;;3.47;;
64678;SDS011;51094;53.864;27.676;2023-03-23T16:43:04;3.88;;;3.88;;
64678;SDS011;51094;53.864;27.676;2023-03-23T16:45:35;3.80;;;3.70;;
64678;SDS011;51094;53.864;27.676;2023-03-23T16:48:04;3.80;;;3.80;;
64678;SDS011;51094;53.864;27.676;2023-03-23T16:50:32;4.00;;;3.90;;
64678;SDS011;51094;53.864;27.676;2023-03-23T16:53:00;3.70;;;3.60;;
64678;SDS011;51094;53.864;27.676;2023-03-23T16:55:27;3.60;;;3.50;;
64678;SDS011;51094;53.864;27.676;2023-03-23T16:57:56;3.40;;;3.40;;
64678;SDS011;51094;53.864;27.676;2023-03-23T17:00:41;3.47;;;3.42;;
64678;SDS011;51094;53.864;27.676;2023-03-23T17:03:09;3.65;;;3.55;;